createdAt,value
2023-01-03T00:00:59.328Z,1.35
2023-01-03T00:03:07.365Z,1.30
2023-01-03T00:05:12.518Z,1.30
2023-01-03T00:07:34.197Z,1.52
2023-01-03T00:09:39.418Z,1.15
2023-01-03T00:11:57.146Z,1.42
2023-01-03T00:14:02.015Z,1.00
2023-01-03T00:16:07.409Z,1.23
2023-01-03T00:18:14.877Z,1.45
2023-01-03T00:20:19.740Z,0.95
2023-01-03T00:22:24.629Z,1.00
2023-01-03T00:24:29.427Z,1.10
2023-01-03T00:26:34.418Z,1.13
2023-01-03T00:28:39.264Z,1.10
2023-01-03T00:30:44.068Z,1.05
2023-01-03T00:32:48.905Z,1.05
2023-01-03T00:35:01.604Z,0.88
2023-01-03T00:37:09.722Z,1.10
2023-01-03T00:39:14.837Z,1.10
2023-01-03T00:41:21.520Z,1.20
2023-01-03T00:43:32.030Z,1.10
2023-01-03T00:45:36.824Z,1.20
2023-01-03T00:47:41.707Z,1.13
2023-01-03T00:49:46.535Z,1.10
2023-01-03T00:51:55.081Z,1.15
2023-01-03T00:54:02.039Z,1.23
2023-01-03T00:56:08.025Z,1.10
2023-01-03T00:58:12.850Z,1.17
2023-01-03T01:00:18.541Z,1.30
2023-01-03T01:02:23.588Z,1.10
2023-01-03T01:06:37.456Z,1.25
2023-01-03T01:08:45.158Z,1.20
2023-01-03T01:11:02.032Z,1.20
2023-01-03T01:13:06.999Z,1.00
2023-01-03T01:15:12.669Z,1.20
2023-01-03T01:17:22.371Z,1.15
2023-01-03T01:19:29.949Z,1.23
2023-01-03T01:21:34.775Z,1.33
2023-01-03T01:23:41.367Z,1.92
2023-01-03T01:25:48.849Z,1.23
2023-01-03T01:27:53.617Z,1.10
2023-01-03T01:29:58.454Z,1.30
2023-01-03T01:32:03.437Z,1.73
2023-01-03T01:34:09.979Z,1.30
2023-01-03T01:38:23.224Z,1.50
2023-01-03T01:40:28.047Z,1.13
2023-01-03T01:42:47.950Z,1.50
2023-01-03T01:44:54.552Z,1.50
2023-01-03T01:46:59.499Z,1.48
2023-01-03T01:49:08.072Z,1.42
2023-01-03T01:51:14.979Z,1.20
2023-01-03T01:53:23.213Z,1.40
2023-01-03T01:55:33.524Z,1.17
2023-01-03T01:57:41.547Z,1.42
2023-01-03T01:59:46.634Z,1.45
2023-01-03T02:01:52.917Z,1.42
2023-01-03T02:04:02.971Z,1.17
2023-01-03T02:06:10.944Z,1.20
2023-01-03T02:08:15.933Z,1.35
2023-01-03T02:10:23.331Z,1.35
2023-01-03T02:12:57.446Z,1.50
2023-01-03T02:15:25.823Z,5.72
2023-01-03T02:17:44.007Z,4.32
2023-01-03T02:20:15.360Z,3.35
2023-01-03T02:23:13.431Z,1.60
2023-01-03T02:26:00.635Z,1.27
2023-01-03T02:30:48.539Z,1.60
2023-01-03T02:32:58.123Z,1.60
2023-01-03T02:35:09.556Z,1.50
2023-01-03T02:37:22.364Z,1.67
2023-01-03T02:39:30.437Z,1.80
2023-01-03T02:41:43.094Z,1.48
2023-01-03T02:43:52.359Z,1.40
2023-01-03T02:46:07.325Z,1.45
2023-01-03T02:48:16.485Z,1.50
2023-01-03T02:50:26.298Z,1.58
2023-01-03T02:52:33.540Z,1.80
2023-01-03T02:54:44.946Z,1.67
2023-01-03T02:56:55.219Z,1.90
2023-01-03T02:59:06.934Z,1.80
2023-01-03T03:01:16.910Z,2.00
2023-01-03T03:03:25.406Z,2.10
2023-01-03T03:05:35.223Z,1.75
2023-01-03T03:07:42.308Z,1.90
2023-01-03T03:09:59.383Z,1.88
2023-01-03T03:12:18.845Z,1.67
2023-01-03T03:14:28.125Z,2.10
2023-01-03T03:16:51.232Z,1.80
2023-01-03T03:19:02.101Z,1.95
2023-01-03T03:21:21.754Z,1.92
2023-01-03T03:23:43.467Z,2.15
2023-01-03T03:25:53.462Z,2.45
2023-01-03T03:28:14.956Z,2.10
2023-01-03T03:30:23.276Z,2.20
2023-01-03T03:32:34.334Z,2.10
2023-01-03T03:34:39.504Z,1.67
2023-01-03T03:36:54.109Z,2.13
2023-01-03T03:38:59.089Z,1.80
2023-01-03T03:41:26.697Z,2.17
2023-01-03T03:43:49.017Z,1.90
2023-01-03T03:46:02.752Z,1.80
2023-01-03T03:48:17.588Z,2.05
2023-01-03T03:50:24.359Z,1.92
2023-01-03T03:52:32.535Z,2.20
2023-01-03T03:54:40.345Z,2.20
2023-01-03T03:56:50.040Z,2.45
2023-01-03T03:59:00.115Z,2.20
2023-01-03T04:01:06.707Z,2.70
2023-01-03T04:03:16.527Z,2.30
2023-01-03T04:05:25.965Z,2.17
2023-01-03T04:07:31.013Z,2.22
2023-01-03T04:09:35.914Z,2.17
2023-01-03T04:11:41.340Z,2.30
2023-01-03T04:13:46.168Z,2.35
2023-01-03T04:15:50.949Z,2.08
2023-01-03T04:17:55.886Z,2.63
2023-01-03T04:20:03.378Z,2.60
2023-01-03T04:22:09.347Z,2.10
2023-01-03T04:24:14.142Z,2.40
2023-01-03T04:26:20.007Z,2.35
2023-01-03T04:28:25.055Z,2.45
2023-01-03T04:30:30.012Z,2.30
2023-01-03T04:32:34.813Z,1.88
2023-01-03T04:34:39.672Z,3.58
2023-01-03T04:36:47.060Z,2.45
2023-01-03T04:38:52.142Z,2.30
2023-01-03T04:40:56.963Z,2.58
2023-01-03T04:43:14.262Z,2.22
2023-01-03T04:45:19.331Z,1.95
2023-01-03T04:47:24.178Z,2.25
2023-01-03T04:49:28.966Z,2.05
2023-01-03T04:51:34.127Z,2.10
2023-01-03T04:55:49.666Z,2.50
2023-01-03T04:57:54.446Z,2.10
2023-01-03T04:59:59.385Z,1.70
2023-01-03T05:02:06.908Z,2.10
2023-01-03T05:04:12.019Z,2.28
2023-01-03T05:06:17.592Z,2.05
2023-01-03T05:08:22.433Z,2.53
2023-01-03T05:10:29.797Z,2.20
2023-01-03T05:12:34.603Z,2.45
2023-01-03T05:16:46.806Z,2.40
2023-01-03T05:18:54.037Z,2.25
2023-01-03T05:21:11.250Z,2.55
2023-01-03T05:23:29.917Z,2.70
2023-01-03T05:25:52.507Z,2.38
2023-01-03T05:27:57.936Z,2.42
2023-01-03T05:30:04.015Z,2.50
2023-01-03T05:32:12.018Z,2.95
2023-01-03T05:34:17.113Z,2.67
2023-01-03T05:36:21.904Z,2.65
2023-01-03T05:38:26.955Z,3.20
2023-01-03T05:40:34.980Z,3.13
2023-01-03T05:42:46.809Z,2.42
2023-01-03T05:44:51.827Z,2.63
2023-01-03T05:46:56.658Z,3.22
2023-01-03T05:49:01.654Z,2.90
2023-01-03T05:51:06.997Z,2.70
2023-01-03T05:53:11.810Z,2.55
2023-01-03T05:55:16.929Z,2.40
2023-01-03T05:59:29.082Z,3.70
2023-01-03T06:01:33.904Z,3.55
2023-01-03T06:03:38.882Z,2.83
2023-01-03T06:05:50.218Z,2.80
2023-01-03T06:07:55.599Z,3.10
2023-01-03T06:10:00.504Z,3.15
2023-01-03T06:12:06.477Z,3.45
2023-01-03T06:14:11.601Z,4.50
2023-01-03T06:16:34.774Z,4.05
2023-01-03T06:18:39.797Z,3.65
2023-01-03T06:20:44.642Z,4.45
2023-01-03T06:22:49.869Z,4.40
2023-01-03T06:26:59.391Z,4.45
2023-01-03T06:29:07.203Z,4.60
2023-01-03T06:31:13.034Z,4.82
2023-01-03T06:33:20.947Z,5.15
2023-01-03T06:35:26.005Z,5.32
2023-01-03T06:37:30.836Z,5.22
2023-01-03T06:39:35.858Z,5.10
2023-01-03T06:41:40.870Z,5.47
2023-01-03T06:43:46.011Z,5.90
2023-01-03T06:46:03.715Z,5.95
2023-01-03T06:48:22.030Z,5.65
2023-01-03T06:50:41.940Z,6.50
2023-01-03T06:52:59.292Z,5.97
2023-01-03T06:55:04.933Z,5.70
2023-01-03T06:57:09.766Z,6.18
2023-01-03T06:59:31.188Z,6.03
2023-01-03T07:01:36.681Z,6.95
2023-01-03T07:03:41.671Z,6.25
2023-01-03T07:05:49.191Z,6.28
2023-01-03T07:07:54.002Z,6.00
2023-01-03T07:09:58.821Z,5.53
2023-01-03T07:12:23.675Z,5.20
2023-01-03T07:14:28.278Z,5.97
2023-01-03T07:16:34.884Z,5.47
2023-01-03T07:18:39.835Z,5.40
2023-01-03T07:20:45.318Z,5.82
2023-01-03T07:22:52.752Z,5.85
2023-01-03T07:24:57.894Z,5.90
2023-01-03T07:27:02.625Z,6.38
2023-01-03T07:29:12.618Z,5.90
2023-01-03T07:31:17.416Z,6.93
2023-01-03T07:33:23.718Z,6.80
2023-01-03T07:35:28.626Z,7.00
2023-01-03T07:37:34.179Z,6.47
2023-01-03T07:39:41.547Z,6.40
2023-01-03T07:41:58.809Z,5.97
2023-01-03T07:44:07.047Z,6.47
2023-01-03T07:46:13.845Z,6.47
2023-01-03T07:48:19.019Z,6.05
2023-01-03T07:50:23.805Z,6.97
2023-01-03T07:52:28.632Z,6.97
2023-01-03T07:54:33.460Z,7.57
2023-01-03T07:56:40.782Z,7.75
2023-01-03T07:58:47.423Z,6.88
2023-01-03T08:00:52.288Z,7.03
2023-01-03T08:02:57.672Z,6.85
2023-01-03T08:05:02.548Z,7.22
2023-01-03T08:07:07.503Z,6.47
2023-01-03T08:09:24.818Z,7.40
2023-01-03T08:11:42.126Z,7.82
2023-01-03T08:13:50.249Z,6.93
2023-01-03T08:15:57.970Z,7.03
2023-01-03T08:18:03.984Z,6.90
2023-01-03T08:20:11.401Z,5.95
2023-01-03T08:22:16.486Z,6.88
2023-01-03T08:24:21.307Z,6.78
2023-01-03T08:26:26.072Z,5.82
2023-01-03T08:28:31.124Z,5.63
2023-01-03T08:30:43.318Z,6.43
2023-01-03T08:32:48.465Z,7.30
2023-01-03T08:34:54.473Z,6.95
2023-01-03T08:37:03.281Z,6.65
2023-01-03T08:39:10.596Z,6.20
2023-01-03T08:41:19.774Z,5.65
2023-01-03T08:43:24.813Z,6.00
2023-01-03T08:45:30.039Z,5.57
2023-01-03T08:49:42.245Z,5.50
2023-01-03T08:51:47.065Z,5.72
2023-01-03T08:53:51.944Z,5.55
2023-01-03T08:55:56.751Z,5.13
2023-01-03T08:58:02.480Z,5.10
2023-01-03T09:00:10.817Z,5.72
2023-01-03T09:02:15.873Z,5.57
2023-01-03T09:04:23.356Z,5.20
2023-01-03T09:06:28.194Z,5.30
2023-01-03T09:08:33.378Z,5.20
2023-01-03T09:12:52.720Z,4.88
2023-01-03T09:14:57.602Z,4.53
2023-01-03T09:17:02.395Z,4.63
2023-01-03T09:19:07.199Z,5.00
2023-01-03T09:21:14.639Z,5.43
2023-01-03T09:23:19.468Z,4.60
2023-01-03T09:25:24.455Z,5.03
2023-01-03T09:27:29.241Z,4.25
2023-01-03T09:29:34.118Z,4.20
2023-01-03T09:31:40.305Z,4.60
2023-01-03T09:33:45.299Z,4.57
2023-01-03T09:35:50.321Z,4.70
2023-01-03T09:37:57.716Z,4.40
2023-01-03T09:40:02.686Z,4.68
2023-01-03T09:42:21.236Z,4.00
2023-01-03T09:44:26.178Z,4.10
2023-01-03T09:46:32.702Z,4.07
2023-01-03T09:48:39.860Z,4.78
2023-01-03T09:53:33.387Z,4.30
2023-01-03T09:58:13.383Z,4.00
2023-01-03T10:00:36.366Z,3.83
2023-01-03T10:03:09.507Z,3.92
2023-01-03T10:05:36.781Z,3.60
2023-01-03T10:08:07.229Z,3.28
2023-01-03T10:10:21.431Z,3.97
2023-01-03T10:12:31.846Z,3.85
2023-01-03T10:14:48.825Z,3.67
2023-01-03T10:17:07.104Z,4.07
2023-01-03T10:19:37.890Z,4.40
2023-01-03T10:21:52.591Z,3.67
2023-01-03T10:23:57.979Z,3.92
2023-01-03T10:26:12.345Z,4.00
2023-01-03T10:28:22.668Z,3.55
2023-01-03T10:30:39.960Z,4.40
2023-01-03T10:33:07.321Z,3.63
2023-01-03T10:35:21.294Z,4.43
2023-01-03T10:37:27.080Z,4.07
2023-01-03T10:39:33.927Z,4.47
2023-01-03T10:41:46.384Z,4.03
2023-01-03T10:44:00.267Z,4.57
2023-01-03T10:46:06.652Z,4.78
2023-01-03T10:48:17.221Z,3.95
2023-01-03T10:50:24.751Z,3.63
2023-01-03T10:52:34.286Z,3.85
2023-01-03T10:54:52.098Z,4.20
2023-01-03T10:57:00.041Z,3.28
2023-01-03T10:59:14.997Z,3.85
2023-01-03T11:01:25.542Z,4.13
2023-01-03T11:03:30.993Z,3.47
2023-01-03T11:05:35.886Z,3.70
2023-01-03T11:07:45.925Z,3.45
2023-01-03T11:09:53.791Z,3.85
2023-01-03T11:12:06.851Z,3.05
2023-01-03T11:14:22.921Z,2.83
2023-01-03T11:16:34.879Z,3.70
2023-01-03T11:18:39.871Z,3.97
2023-01-03T11:20:50.460Z,4.63
2023-01-03T11:23:03.168Z,3.78
2023-01-03T11:25:22.759Z,3.72
2023-01-03T11:27:51.051Z,3.20
2023-01-03T11:30:05.899Z,3.63
2023-01-03T11:32:25.572Z,3.72
2023-01-03T11:35:20.736Z,3.92
2023-01-03T11:37:20.059Z,3.50
2023-01-03T11:39:38.825Z,3.60
2023-01-03T11:41:56.329Z,3.75
2023-01-03T11:44:29.196Z,3.80
2023-01-03T11:46:51.027Z,3.17
2023-01-03T11:49:17.100Z,3.78
2023-01-03T11:51:33.389Z,4.00
2023-01-03T11:53:39.603Z,3.67
2023-01-03T11:55:56.409Z,3.70
2023-01-03T11:58:13.109Z,3.35
2023-01-03T12:00:29.187Z,3.38
2023-01-03T12:03:00.905Z,3.75
2023-01-03T12:05:20.886Z,3.13
2023-01-03T12:07:47.531Z,3.60
2023-01-03T12:10:00.947Z,3.38
2023-01-03T12:12:21.252Z,3.00
2023-01-03T12:14:31.556Z,3.90
2023-01-03T12:16:44.906Z,3.70
2023-01-03T12:18:57.613Z,3.10
2023-01-03T12:21:10.313Z,3.47
2023-01-03T12:23:24.107Z,2.78
2023-01-03T12:25:33.588Z,3.58
2023-01-03T12:27:44.957Z,3.58
2023-01-03T12:29:59.146Z,3.08
2023-01-03T12:32:14.886Z,3.17
2023-01-03T12:34:28.594Z,3.22
2023-01-03T12:36:43.990Z,3.38
2023-01-03T12:39:02.669Z,3.22
2023-01-03T12:41:16.026Z,3.50
2023-01-03T12:43:27.813Z,3.50
2023-01-03T12:45:43.874Z,3.70
2023-01-03T12:47:57.387Z,3.70
2023-01-03T12:50:11.506Z,3.70
2023-01-03T12:52:19.769Z,3.90
2023-01-03T12:54:37.721Z,3.67
2023-01-03T12:57:16.380Z,3.22
2023-01-03T12:59:41.148Z,3.72
2023-01-03T13:01:49.089Z,3.17
2023-01-03T13:04:00.794Z,2.65
2023-01-03T13:06:08.524Z,2.33
2023-01-03T13:08:32.525Z,2.60
2023-01-03T13:10:40.812Z,2.38
2023-01-03T13:12:53.260Z,2.70
2023-01-03T13:15:00.267Z,2.25
2023-01-03T13:17:09.749Z,2.28
2023-01-03T13:19:59.200Z,1.90
2023-01-03T13:22:08.813Z,2.00
2023-01-03T13:24:13.742Z,1.90
2023-01-03T13:26:29.230Z,2.20
2023-01-03T13:28:38.226Z,1.75
2023-01-03T13:30:43.411Z,1.65
2023-01-03T13:32:54.995Z,1.80
2023-01-03T13:35:38.603Z,1.25
2023-01-03T13:37:51.304Z,2.00
2023-01-03T13:41:15.317Z,1.40
2023-01-03T13:43:06.100Z,1.55
2023-01-03T13:45:58.001Z,1.85
2023-01-03T13:48:13.598Z,1.40
2023-01-03T13:50:23.082Z,1.30
2023-01-03T13:52:59.693Z,1.35
2023-01-03T13:55:10.777Z,1.38
2023-01-03T13:57:54.713Z,1.30
2023-01-03T14:00:01.876Z,1.10
2023-01-03T14:02:46.676Z,1.35
2023-01-03T14:05:22.660Z,1.30
2023-01-03T14:07:52.102Z,1.38
2023-01-03T14:10:17.026Z,1.30
2023-01-03T14:12:52.526Z,1.15
2023-01-03T14:14:59.495Z,1.98
2023-01-03T14:17:06.650Z,1.20
2023-01-03T14:19:21.038Z,1.02
2023-01-03T14:21:32.193Z,1.20
2023-01-03T14:24:08.005Z,1.02
2023-01-03T14:26:17.548Z,1.50
2023-01-03T14:28:25.449Z,1.17
2023-01-03T14:30:33.637Z,1.30
2023-01-03T14:32:38.737Z,1.60
2023-01-03T14:34:44.642Z,1.30
2023-01-03T14:36:50.711Z,1.10
2023-01-03T14:38:57.640Z,1.23
2023-01-03T14:41:03.324Z,1.48
2023-01-03T14:43:21.112Z,1.42
2023-01-03T14:45:26.509Z,1.30
2023-01-03T14:47:35.977Z,1.60
2023-01-03T14:49:44.788Z,1.58
2023-01-03T14:51:50.197Z,1.50
2023-01-03T14:53:56.852Z,1.58
2023-01-03T14:56:02.737Z,1.98
2023-01-03T14:58:35.053Z,1.77
2023-01-03T15:00:41.147Z,2.03
2023-01-03T15:02:47.675Z,1.60
2023-01-03T15:04:55.492Z,1.90
2023-01-03T15:07:11.279Z,1.83
2023-01-03T15:09:23.797Z,1.90
2023-01-03T15:11:35.884Z,1.80
2023-01-03T15:13:54.221Z,2.10
2023-01-03T15:16:00.924Z,2.10
2023-01-03T15:18:10.238Z,3.00
2023-01-03T15:20:21.309Z,3.92
2023-01-03T15:22:30.946Z,4.00
2023-01-03T15:24:43.450Z,4.55
2023-01-03T15:26:53.143Z,4.20
2023-01-03T15:29:10.908Z,3.92
2023-01-03T15:31:19.134Z,3.28
2023-01-03T15:33:32.471Z,3.05
2023-01-03T15:35:41.968Z,4.32
2023-01-03T15:37:56.326Z,5.20
2023-01-03T15:40:07.452Z,5.07
2023-01-03T15:42:44.098Z,4.65
2023-01-03T15:44:52.562Z,4.13
2023-01-03T15:47:01.086Z,5.30
2023-01-03T15:49:08.465Z,6.05
2023-01-03T15:51:14.253Z,6.63
2023-01-03T15:53:33.405Z,7.95
2023-01-03T15:55:40.693Z,7.70
2023-01-03T15:59:59.486Z,8.88
2023-01-03T16:02:04.834Z,8.32
2023-01-03T16:06:14.282Z,7.82
2023-01-03T16:08:27.850Z,8.05
2023-01-03T16:10:35.629Z,7.57
2023-01-03T16:12:44.170Z,8.18
2023-01-03T16:14:52.190Z,6.43
2023-01-03T16:16:59.772Z,7.18
2023-01-03T16:19:06.359Z,9.10
2023-01-03T16:21:11.148Z,8.45
2023-01-03T16:23:26.444Z,8.85
2023-01-03T16:25:31.694Z,6.85
2023-01-03T16:29:41.197Z,6.40
2023-01-03T16:31:47.894Z,6.13
2023-01-03T16:33:55.322Z,5.45
2023-01-03T16:36:00.447Z,4.22
2023-01-03T16:38:08.092Z,5.15
2023-01-03T16:40:17.078Z,4.80
2023-01-03T16:42:27.727Z,4.60
2023-01-03T16:44:32.875Z,3.75
2023-01-03T16:46:40.567Z,4.32
2023-01-03T16:48:52.468Z,4.82
2023-01-03T16:50:59.911Z,4.38
2023-01-03T16:53:05.089Z,4.57
2023-01-03T16:55:18.454Z,4.38
2023-01-03T16:57:25.033Z,5.25
2023-01-03T16:59:29.884Z,5.68
2023-01-03T17:01:34.808Z,5.47
2023-01-03T17:03:42.023Z,5.93
2023-01-03T17:05:47.884Z,10.50
2023-01-03T17:08:05.366Z,11.60
2023-01-03T17:10:17.625Z,10.75
2023-01-03T17:12:25.769Z,9.13
2023-01-03T17:14:30.603Z,8.85
2023-01-03T17:16:36.020Z,8.57
2023-01-03T17:18:43.061Z,7.90
2023-01-03T17:20:47.885Z,8.43
2023-01-03T17:22:54.615Z,8.75
2023-01-03T17:25:02.156Z,8.00
2023-01-03T17:27:07.318Z,8.20
2023-01-03T17:29:19.012Z,7.93
2023-01-03T17:31:25.373Z,7.43
2023-01-03T17:33:34.236Z,8.10
2023-01-03T17:35:41.466Z,7.82
2023-01-03T17:40:26.410Z,7.53
2023-01-03T17:42:36.100Z,7.10
2023-01-03T17:44:41.355Z,6.63
2023-01-03T17:46:58.562Z,6.65
2023-01-03T17:49:15.935Z,6.32
2023-01-03T17:51:21.159Z,5.60
2023-01-03T17:55:36.112Z,7.10
2023-01-03T17:57:40.998Z,8.68
2023-01-03T17:59:45.872Z,12.25
2023-01-03T18:01:52.368Z,11.75
2023-01-03T18:03:57.347Z,12.60
2023-01-03T18:06:06.514Z,10.73
2023-01-03T18:08:19.484Z,10.35
2023-01-03T18:10:29.270Z,11.13
2023-01-03T18:12:37.007Z,9.90
2023-01-03T18:14:42.016Z,10.98
2023-01-03T18:16:53.112Z,11.32
2023-01-03T18:18:59.905Z,10.25
2023-01-03T18:21:05.119Z,10.63
2023-01-03T18:25:22.343Z,11.10
2023-01-03T18:27:30.006Z,10.32
2023-01-03T18:29:39.828Z,9.57
2023-01-03T18:31:50.763Z,8.93
2023-01-03T18:33:57.429Z,9.55
2023-01-03T18:36:03.791Z,11.13
2023-01-03T18:38:16.081Z,9.02
2023-01-03T18:40:23.843Z,10.85
2023-01-03T18:42:41.649Z,10.65
2023-01-03T18:44:49.078Z,9.32
2023-01-03T18:46:56.779Z,9.88
2023-01-03T18:49:01.858Z,9.80
2023-01-03T18:51:07.112Z,10.18
2023-01-03T18:55:24.017Z,10.07
2023-01-03T18:57:29.003Z,9.75
2023-01-03T18:59:34.712Z,9.93
2023-01-03T19:01:42.233Z,10.68
2023-01-03T19:03:49.627Z,10.48
2023-01-03T19:05:55.447Z,9.98
2023-01-03T19:08:00.480Z,9.88
2023-01-03T19:10:06.969Z,10.10
2023-01-03T19:12:18.839Z,9.77
2023-01-03T19:14:23.811Z,9.68
2023-01-03T19:16:31.340Z,10.60
2023-01-03T19:18:38.760Z,10.02
2023-01-03T19:20:43.768Z,11.02
2023-01-03T19:22:50.037Z,11.05
2023-01-03T19:24:56.331Z,11.32
2023-01-03T19:27:06.477Z,9.45
2023-01-03T19:29:22.969Z,9.70
2023-01-03T19:31:29.529Z,9.18
2023-01-03T19:33:34.349Z,9.30
2023-01-03T19:35:41.966Z,8.05
2023-01-03T19:37:46.797Z,8.40
2023-01-03T19:39:51.706Z,9.35
2023-01-03T19:42:10.839Z,9.43
2023-01-03T19:44:15.879Z,8.88
2023-01-03T19:46:21.432Z,9.18
2023-01-03T19:48:28.371Z,9.43
2023-01-03T19:50:34.836Z,8.88
2023-01-03T19:52:42.246Z,9.15
2023-01-03T19:54:47.909Z,9.80
2023-01-03T19:56:58.018Z,9.85
2023-01-03T19:59:03.722Z,9.98
2023-01-03T20:01:09.351Z,10.23
2023-01-03T20:03:25.691Z,9.88
2023-01-03T20:05:35.597Z,10.57
2023-01-03T20:07:43.286Z,10.43
2023-01-03T20:09:48.148Z,9.43
2023-01-03T20:11:55.394Z,9.45
2023-01-03T20:14:00.369Z,10.65
2023-01-03T20:16:05.580Z,10.00
2023-01-03T20:20:28.144Z,9.52
2023-01-03T20:25:00.874Z,9.07
2023-01-03T20:27:05.954Z,8.65
2023-01-03T20:29:13.252Z,8.07
2023-01-03T20:31:20.675Z,8.93
2023-01-03T20:33:26.014Z,8.60
2023-01-03T20:37:59.017Z,8.88
2023-01-03T20:40:07.153Z,7.63
2023-01-03T20:42:25.017Z,12.05
2023-01-03T20:44:30.095Z,10.48
2023-01-03T20:46:35.050Z,10.10
2023-01-03T20:50:45.039Z,9.38
2023-01-03T20:54:54.597Z,8.82
2023-01-03T20:57:02.019Z,8.77
2023-01-03T20:59:07.737Z,8.48
2023-01-03T21:01:13.489Z,8.70
2023-01-03T21:03:19.727Z,8.93
2023-01-03T21:05:25.182Z,8.40
2023-01-03T21:09:52.921Z,8.63
2023-01-03T21:11:57.757Z,8.85
2023-01-03T21:14:06.441Z,8.73
2023-01-03T21:16:22.678Z,8.15
2023-01-03T21:18:27.635Z,8.60
2023-01-03T21:20:34.450Z,8.98
2023-01-03T21:22:39.313Z,8.85
2023-01-03T21:24:46.031Z,8.43
2023-01-03T21:26:51.357Z,8.90
2023-01-03T21:28:56.237Z,9.32
2023-01-03T21:31:05.518Z,9.35
2023-01-03T21:33:18.885Z,7.95
2023-01-03T21:35:25.517Z,9.15
2023-01-03T21:37:30.272Z,8.90
2023-01-03T21:39:35.120Z,9.18
2023-01-03T21:42:00.165Z,10.05
2023-01-03T21:44:07.768Z,10.20
2023-01-03T21:46:18.725Z,10.52
2023-01-03T21:48:23.605Z,10.10
2023-01-03T21:50:29.116Z,9.63
2023-01-03T21:52:33.913Z,10.32
2023-01-03T21:54:38.660Z,9.93
2023-01-03T21:56:47.418Z,10.73
2023-01-03T21:58:52.690Z,11.07
2023-01-03T22:03:17.614Z,9.77
2023-01-03T22:05:22.538Z,10.73
2023-01-03T22:07:27.626Z,10.68
2023-01-03T22:09:46.007Z,11.48
2023-01-03T22:11:50.793Z,10.75
2023-01-03T22:13:58.902Z,11.13
2023-01-03T22:16:06.858Z,10.60
2023-01-03T22:18:14.282Z,11.30
2023-01-03T22:20:21.359Z,9.75
2023-01-03T22:22:26.128Z,9.93
2023-01-03T22:24:30.959Z,10.43
2023-01-03T22:26:35.720Z,10.18
2023-01-03T22:28:42.381Z,10.23
2023-01-03T22:30:47.291Z,10.25
2023-01-03T22:32:52.051Z,9.77
2023-01-03T22:34:59.561Z,10.65
2023-01-03T22:37:04.384Z,10.73
2023-01-03T22:39:09.226Z,10.25
2023-01-03T22:41:15.901Z,10.32
2023-01-03T22:43:21.251Z,10.23
2023-01-03T22:47:31.630Z,11.23
2023-01-03T22:49:36.511Z,10.10
2023-01-03T22:51:43.933Z,9.80
2023-01-03T22:53:49.264Z,11.05
2023-01-03T22:55:54.071Z,9.90
2023-01-03T22:57:58.803Z,10.88
2023-01-03T23:00:03.682Z,10.18
2023-01-03T23:02:08.605Z,11.00
2023-01-03T23:04:14.358Z,11.35
2023-01-03T23:06:22.330Z,10.85
2023-01-03T23:08:29.691Z,10.55
2023-01-03T23:10:34.613Z,10.18
2023-01-03T23:12:52.404Z,9.90
2023-01-03T23:14:57.164Z,10.77
2023-01-03T23:17:22.349Z,11.30
2023-01-03T23:19:29.061Z,12.90
2023-01-03T23:21:33.931Z,12.90
2023-01-03T23:23:41.317Z,11.27
2023-01-03T23:25:46.074Z,10.68
2023-01-03T23:27:50.823Z,11.27
2023-01-03T23:29:56.011Z,10.93
2023-01-03T23:32:01.057Z,11.10
2023-01-03T23:34:05.854Z,12.20
2023-01-03T23:36:13.855Z,11.02
2023-01-03T23:38:18.822Z,10.45
2023-01-03T23:40:26.218Z,13.32
2023-01-03T23:42:31.679Z,11.52
2023-01-03T23:44:36.507Z,11.82
2023-01-03T23:46:41.582Z,13.25
2023-01-03T23:48:46.572Z,12.20
2023-01-03T23:52:56.087Z,12.57
2023-01-03T23:55:05.272Z,12.60
2023-01-03T23:57:17.714Z,11.90
2023-01-03T23:59:22.718Z,11.43
